sensor_id;sensor_type;location;lat;lon;timestamp;P1;durP1;ratioP1;P2;durP2;ratioP2
56043;SDS011;41912;51.022;3.664;2023-04-23T00:01:13;24.20;;;16.00;;
56043;SDS011;41912;51.022;3.664;2023-04-23T00:03:41;24.10;;;16.20;;
56043;SDS011;41912;51.022;3.664;2023-04-23T00:06:07;24.70;;;16.52;;
56043;SDS011;41912;51.022;3.664;2023-04-23T00:08:39;25.38;;;16.58;;
56043;SDS011;41912;51.022;3.664;2023-04-23T00:11:06;23.80;;;16.40;;
56043;SDS011;41912;51.022;3.664;2023-04-23T00:13:33;25.77;;;16.77;;
56043;SDS011;41912;51.022;3.664;2023-04-23T00:15:59;25.05;;;15.98;;
56043;SDS011;41912;51.022;3.664;2023-04-23T00:18:25;24.08;;;16.33;;
56043;SDS011;41912;51.022;3.664;2023-04-23T00:20:51;20.45;;;15.55;;
56043;SDS011;41912;51.022;3.664;2023-04-23T00:23:17;21.63;;;15.15;;
56043;SDS011;41912;51.022;3.664;2023-04-23T00:25:42;22.13;;;14.68;;
56043;SDS011;41912;51.022;3.664;2023-04-23T00:28:08;23.70;;;15.82;;
56043;SDS011;41912;51.022;3.664;2023-04-23T00:30:33;19.88;;;13.45;;
56043;SDS011;41912;51.022;3.664;2023-04-23T00:32:59;21.05;;;14.43;;
56043;SDS011;41912;51.022;3.664;2023-04-23T00:35:25;22.80;;;15.48;;
56043;SDS011;41912;51.022;3.664;2023-04-23T00:37:51;22.77;;;14.98;;
56043;SDS011;41912;51.022;3.664;2023-04-23T00:40:16;23.08;;;16.52;;
56043;SDS011;41912;51.022;3.664;2023-04-23T00:42:42;24.25;;;16.02;;
56043;SDS011;41912;51.022;3.664;2023-04-23T00:45:09;23.67;;;16.10;;
56043;SDS011;41912;51.022;3.664;2023-04-23T00:47:35;22.88;;;16.35;;
56043;SDS011;41912;51.022;3.664;2023-04-23T00:50:01;28.95;;;16.17;;
56043;SDS011;41912;51.022;3.664;2023-04-23T00:52:27;26.25;;;17.25;;
56043;SDS011;41912;51.022;3.664;2023-04-23T00:54:53;28.55;;;16.88;;
56043;SDS011;41912;51.022;3.664;2023-04-23T00:57:20;24.10;;;16.88;;
56043;SDS011;41912;51.022;3.664;2023-04-23T00:59:46;21.48;;;15.25;;
56043;SDS011;41912;51.022;3.664;2023-04-23T01:02:13;21.95;;;15.50;;
56043;SDS011;41912;51.022;3.664;2023-04-23T01:04:39;24.17;;;15.30;;
56043;SDS011;41912;51.022;3.664;2023-04-23T01:07:07;20.50;;;14.65;;
56043;SDS011;41912;51.022;3.664;2023-04-23T01:09:34;24.50;;;15.73;;
56043;SDS011;41912;51.022;3.664;2023-04-23T01:11:59;23.25;;;15.30;;
56043;SDS011;41912;51.022;3.664;2023-04-23T01:14:26;22.15;;;14.60;;
56043;SDS011;41912;51.022;3.664;2023-04-23T01:16:52;22.08;;;14.10;;
56043;SDS011;41912;51.022;3.664;2023-04-23T01:19:18;23.27;;;15.43;;
56043;SDS011;41912;51.022;3.664;2023-04-23T01:21:44;22.02;;;15.70;;
56043;SDS011;41912;51.022;3.664;2023-04-23T01:24:10;23.15;;;15.05;;
56043;SDS011;41912;51.022;3.664;2023-04-23T01:26:36;22.40;;;14.95;;
56043;SDS011;41912;51.022;3.664;2023-04-23T01:29:03;21.15;;;14.00;;
56043;SDS011;41912;51.022;3.664;2023-04-23T01:31:29;19.52;;;13.65;;
56043;SDS011;41912;51.022;3.664;2023-04-23T01:33:56;23.70;;;14.48;;
56043;SDS011;41912;51.022;3.664;2023-04-23T01:36:24;22.67;;;14.85;;
56043;SDS011;41912;51.022;3.664;2023-04-23T01:38:51;21.75;;;13.48;;
56043;SDS011;41912;51.022;3.664;2023-04-23T01:41:17;26.08;;;13.40;;
56043;SDS011;41912;51.022;3.664;2023-04-23T01:43:46;20.05;;;13.00;;
56043;SDS011;41912;51.022;3.664;2023-04-23T01:46:12;20.70;;;13.85;;
56043;SDS011;41912;51.022;3.664;2023-04-23T01:48:38;22.08;;;13.02;;
56043;SDS011;41912;51.022;3.664;2023-04-23T01:51:04;19.40;;;13.23;;
56043;SDS011;41912;51.022;3.664;2023-04-23T01:53:30;20.42;;;14.27;;
56043;SDS011;41912;51.022;3.664;2023-04-23T01:55:56;29.25;;;15.80;;
56043;SDS011;41912;51.022;3.664;2023-04-23T01:58:22;22.85;;;14.73;;
56043;SDS011;41912;51.022;3.664;2023-04-23T02:00:48;27.88;;;16.20;;
56043;SDS011;41912;51.022;3.664;2023-04-23T02:03:14;22.02;;;14.75;;
56043;SDS011;41912;51.022;3.664;2023-04-23T02:05:40;22.95;;;15.60;;
56043;SDS011;41912;51.022;3.664;2023-04-23T02:08:06;24.30;;;17.27;;
56043;SDS011;41912;51.022;3.664;2023-04-23T02:10:32;25.10;;;16.80;;
56043;SDS011;41912;51.022;3.664;2023-04-23T02:12:58;21.42;;;13.77;;
56043;SDS011;41912;51.022;3.664;2023-04-23T02:15:25;21.63;;;15.75;;
56043;SDS011;41912;51.022;3.664;2023-04-23T02:17:50;21.25;;;15.32;;
56043;SDS011;41912;51.022;3.664;2023-04-23T02:20:16;20.65;;;14.48;;
56043;SDS011;41912;51.022;3.664;2023-04-23T02:22:43;21.67;;;15.43;;
56043;SDS011;41912;51.022;3.664;2023-04-23T02:25:10;21.40;;;14.73;;
56043;SDS011;41912;51.022;3.664;2023-04-23T02:27:36;20.90;;;15.07;;
56043;SDS011;41912;51.022;3.664;2023-04-23T02:30:02;24.55;;;16.30;;
56043;SDS011;41912;51.022;3.664;2023-04-23T02:32:27;22.83;;;16.02;;
56043;SDS011;41912;51.022;3.664;2023-04-23T02:34:53;23.65;;;15.63;;
56043;SDS011;41912;51.022;3.664;2023-04-23T02:37:20;26.10;;;16.75;;
56043;SDS011;41912;51.022;3.664;2023-04-23T02:39:45;24.92;;;15.07;;
56043;SDS011;41912;51.022;3.664;2023-04-23T02:42:11;24.73;;;16.27;;
56043;SDS011;41912;51.022;3.664;2023-04-23T02:44:37;21.27;;;14.43;;
56043;SDS011;41912;51.022;3.664;2023-04-23T02:47:03;18.67;;;13.60;;
56043;SDS011;41912;51.022;3.664;2023-04-23T02:49:28;20.02;;;14.10;;
56043;SDS011;41912;51.022;3.664;2023-04-23T02:51:54;22.15;;;15.02;;
56043;SDS011;41912;51.022;3.664;2023-04-23T02:54:20;21.73;;;15.13;;
56043;SDS011;41912;51.022;3.664;2023-04-23T02:56:45;21.17;;;14.20;;
56043;SDS011;41912;51.022;3.664;2023-04-23T02:59:11;20.50;;;14.05;;
56043;SDS011;41912;51.022;3.664;2023-04-23T03:01:37;17.30;;;12.40;;
56043;SDS011;41912;51.022;3.664;2023-04-23T03:04:03;19.58;;;13.85;;
56043;SDS011;41912;51.022;3.664;2023-04-23T03:06:29;17.45;;;12.60;;
56043;SDS011;41912;51.022;3.664;2023-04-23T03:08:55;19.40;;;13.32;;
56043;SDS011;41912;51.022;3.664;2023-04-23T03:11:21;18.40;;;13.05;;
56043;SDS011;41912;51.022;3.664;2023-04-23T03:13:47;19.75;;;12.88;;
56043;SDS011;41912;51.022;3.664;2023-04-23T03:16:13;19.42;;;13.02;;
56043;SDS011;41912;51.022;3.664;2023-04-23T03:18:38;20.80;;;13.65;;
56043;SDS011;41912;51.022;3.664;2023-04-23T03:21:04;18.30;;;13.02;;
56043;SDS011;41912;51.022;3.664;2023-04-23T03:23:30;19.27;;;13.15;;
56043;SDS011;41912;51.022;3.664;2023-04-23T03:25:55;17.60;;;12.00;;
56043;SDS011;41912;51.022;3.664;2023-04-23T03:28:21;21.42;;;12.38;;
56043;SDS011;41912;51.022;3.664;2023-04-23T03:30:47;18.83;;;11.73;;
56043;SDS011;41912;51.022;3.664;2023-04-23T03:33:13;18.52;;;12.63;;
56043;SDS011;41912;51.022;3.664;2023-04-23T03:35:39;18.48;;;12.63;;
56043;SDS011;41912;51.022;3.664;2023-04-23T03:38:04;19.83;;;12.50;;
56043;SDS011;41912;51.022;3.664;2023-04-23T03:40:30;18.17;;;12.20;;
56043;SDS011;41912;51.022;3.664;2023-04-23T03:42:56;18.55;;;12.00;;
56043;SDS011;41912;51.022;3.664;2023-04-23T03:45:22;20.20;;;11.15;;
56043;SDS011;41912;51.022;3.664;2023-04-23T03:47:48;16.08;;;11.20;;
56043;SDS011;41912;51.022;3.664;2023-04-23T03:50:13;18.10;;;11.02;;
56043;SDS011;41912;51.022;3.664;2023-04-23T03:52:41;17.15;;;10.93;;
56043;SDS011;41912;51.022;3.664;2023-04-23T03:55:07;16.23;;;10.55;;
56043;SDS011;41912;51.022;3.664;2023-04-23T03:57:33;14.88;;;10.02;;
56043;SDS011;41912;51.022;3.664;2023-04-23T04:00:00;15.07;;;9.88;;
56043;SDS011;41912;51.022;3.664;2023-04-23T04:02:25;17.42;;;10.15;;
56043;SDS011;41912;51.022;3.664;2023-04-23T04:04:51;15.57;;;9.52;;
56043;SDS011;41912;51.022;3.664;2023-04-23T04:07:18;15.88;;;9.07;;
56043;SDS011;41912;51.022;3.664;2023-04-23T04:09:44;13.77;;;8.98;;
56043;SDS011;41912;51.022;3.664;2023-04-23T04:12:11;12.35;;;8.65;;
56043;SDS011;41912;51.022;3.664;2023-04-23T04:14:37;16.40;;;9.15;;
56043;SDS011;41912;51.022;3.664;2023-04-23T04:17:02;18.08;;;8.73;;
56043;SDS011;41912;51.022;3.664;2023-04-23T04:19:28;19.08;;;8.75;;
56043;SDS011;41912;51.022;3.664;2023-04-23T04:21:53;11.60;;;7.75;;
56043;SDS011;41912;51.022;3.664;2023-04-23T04:24:20;16.73;;;7.82;;
56043;SDS011;41912;51.022;3.664;2023-04-23T04:26:47;10.65;;;7.32;;
56043;SDS011;41912;51.022;3.664;2023-04-23T04:29:13;9.70;;;7.22;;
56043;SDS011;41912;51.022;3.664;2023-04-23T04:31:39;14.25;;;7.90;;
56043;SDS011;41912;51.022;3.664;2023-04-23T04:34:04;12.80;;;8.13;;
56043;SDS011;41912;51.022;3.664;2023-04-23T04:36:31;13.82;;;6.72;;
56043;SDS011;41912;51.022;3.664;2023-04-23T04:38:57;11.10;;;7.05;;
56043;SDS011;41912;51.022;3.664;2023-04-23T04:41:25;13.93;;;6.95;;
56043;SDS011;41912;51.022;3.664;2023-04-23T04:43:51;15.35;;;7.15;;
56043;SDS011;41912;51.022;3.664;2023-04-23T04:46:18;12.73;;;7.25;;
56043;SDS011;41912;51.022;3.664;2023-04-23T04:48:47;12.32;;;6.72;;
56043;SDS011;41912;51.022;3.664;2023-04-23T04:51:13;15.75;;;6.57;;
56043;SDS011;41912;51.022;3.664;2023-04-23T04:53:38;13.48;;;6.57;;
56043;SDS011;41912;51.022;3.664;2023-04-23T04:56:04;16.10;;;6.68;;
56043;SDS011;41912;51.022;3.664;2023-04-23T04:58:30;10.25;;;5.38;;
56043;SDS011;41912;51.022;3.664;2023-04-23T05:00:57;13.40;;;5.97;;
56043;SDS011;41912;51.022;3.664;2023-04-23T05:03:24;9.52;;;5.50;;
56043;SDS011;41912;51.022;3.664;2023-04-23T05:05:50;11.05;;;5.70;;
56043;SDS011;41912;51.022;3.664;2023-04-23T05:08:17;14.80;;;5.53;;
56043;SDS011;41912;51.022;3.664;2023-04-23T05:10:45;11.60;;;5.47;;
56043;SDS011;41912;51.022;3.664;2023-04-23T05:13:11;11.73;;;5.13;;
56043;SDS011;41912;51.022;3.664;2023-04-23T05:15:37;19.17;;;5.45;;
56043;SDS011;41912;51.022;3.664;2023-04-23T05:18:03;15.95;;;5.78;;
56043;SDS011;41912;51.022;3.664;2023-04-23T05:20:29;11.57;;;5.05;;
56043;SDS011;41912;51.022;3.664;2023-04-23T05:22:55;12.40;;;5.40;;
56043;SDS011;41912;51.022;3.664;2023-04-23T05:25:23;10.95;;;4.60;;
56043;SDS011;41912;51.022;3.664;2023-04-23T05:27:49;11.13;;;4.72;;
56043;SDS011;41912;51.022;3.664;2023-04-23T05:30:15;9.20;;;4.90;;
56043;SDS011;41912;51.022;3.664;2023-04-23T05:32:41;14.20;;;5.07;;
56043;SDS011;41912;51.022;3.664;2023-04-23T05:35:06;11.02;;;4.22;;
56043;SDS011;41912;51.022;3.664;2023-04-23T05:37:33;12.55;;;5.20;;
56043;SDS011;41912;51.022;3.664;2023-04-23T05:39:59;15.98;;;4.82;;
56043;SDS011;41912;51.022;3.664;2023-04-23T05:42:26;15.38;;;4.28;;
56043;SDS011;41912;51.022;3.664;2023-04-23T05:44:52;8.93;;;3.75;;
56043;SDS011;41912;51.022;3.664;2023-04-23T05:47:18;10.68;;;3.97;;
56043;SDS011;41912;51.022;3.664;2023-04-23T05:49:43;12.48;;;4.25;;
56043;SDS011;41912;51.022;3.664;2023-04-23T05:52:10;10.68;;;4.82;;
56043;SDS011;41912;51.022;3.664;2023-04-23T05:54:36;16.85;;;4.55;;
56043;SDS011;41912;51.022;3.664;2023-04-23T05:57:01;14.40;;;5.20;;
56043;SDS011;41912;51.022;3.664;2023-04-23T05:59:28;10.60;;;4.03;;
56043;SDS011;41912;51.022;3.664;2023-04-23T06:01:53;10.82;;;4.32;;
56043;SDS011;41912;51.022;3.664;2023-04-23T06:04:19;12.90;;;4.95;;
56043;SDS011;41912;51.022;3.664;2023-04-23T06:06:45;14.55;;;5.15;;
56043;SDS011;41912;51.022;3.664;2023-04-23T06:09:10;9.32;;;3.67;;
56043;SDS011;41912;51.022;3.664;2023-04-23T06:11:36;9.65;;;3.92;;
56043;SDS011;41912;51.022;3.664;2023-04-23T06:14:02;8.00;;;3.83;;
56043;SDS011;41912;51.022;3.664;2023-04-23T06:16:28;9.52;;;3.65;;
56043;SDS011;41912;51.022;3.664;2023-04-23T06:18:54;9.65;;;4.10;;
56043;SDS011;41912;51.022;3.664;2023-04-23T06:21:22;13.90;;;4.22;;
56043;SDS011;41912;51.022;3.664;2023-04-23T06:23:48;13.60;;;3.65;;
56043;SDS011;41912;51.022;3.664;2023-04-23T06:26:14;10.50;;;3.92;;
56043;SDS011;41912;51.022;3.664;2023-04-23T06:28:40;11.00;;;3.50;;
56043;SDS011;41912;51.022;3.664;2023-04-23T06:31:07;13.60;;;3.45;;
56043;SDS011;41912;51.022;3.664;2023-04-23T06:33:33;16.90;;;4.60;;
56043;SDS011;41912;51.022;3.664;2023-04-23T06:36:01;12.73;;;3.88;;
56043;SDS011;41912;51.022;3.664;2023-04-23T06:38:27;12.82;;;3.58;;
56043;SDS011;41912;51.022;3.664;2023-04-23T06:40:52;17.55;;;3.90;;
56043;SDS011;41912;51.022;3.664;2023-04-23T06:43:18;14.35;;;3.45;;
56043;SDS011;41912;51.022;3.664;2023-04-23T06:45:44;10.35;;;3.83;;
56043;SDS011;41912;51.022;3.664;2023-04-23T06:48:10;8.05;;;3.42;;
56043;SDS011;41912;51.022;3.664;2023-04-23T06:50:35;15.18;;;3.63;;
56043;SDS011;41912;51.022;3.664;2023-04-23T06:53:01;9.02;;;3.30;;
56043;SDS011;41912;51.022;3.664;2023-04-23T06:55:27;9.82;;;3.03;;
56043;SDS011;41912;51.022;3.664;2023-04-23T06:57:53;13.05;;;3.20;;
56043;SDS011;41912;51.022;3.664;2023-04-23T07:00:19;11.10;;;4.20;;
56043;SDS011;41912;51.022;3.664;2023-04-23T07:02:46;13.35;;;4.10;;
56043;SDS011;41912;51.022;3.664;2023-04-23T07:05:11;14.38;;;3.17;;
56043;SDS011;41912;51.022;3.664;2023-04-23T07:07:37;8.50;;;2.90;;
56043;SDS011;41912;51.022;3.664;2023-04-23T07:10:04;8.75;;;3.25;;
56043;SDS011;41912;51.022;3.664;2023-04-23T07:12:31;10.35;;;3.17;;
56043;SDS011;41912;51.022;3.664;2023-04-23T07:14:56;11.15;;;3.30;;
56043;SDS011;41912;51.022;3.664;2023-04-23T07:17:22;13.75;;;2.90;;
56043;SDS011;41912;51.022;3.664;2023-04-23T07:19:47;9.23;;;2.58;;
56043;SDS011;41912;51.022;3.664;2023-04-23T07:22:13;9.35;;;2.60;;
56043;SDS011;41912;51.022;3.664;2023-04-23T07:24:39;12.25;;;2.88;;
56043;SDS011;41912;51.022;3.664;2023-04-23T07:27:05;9.32;;;2.20;;
56043;SDS011;41912;51.022;3.664;2023-04-23T07:29:31;11.60;;;2.92;;
56043;SDS011;41912;51.022;3.664;2023-04-23T07:31:56;17.25;;;3.70;;
56043;SDS011;41912;51.022;3.664;2023-04-23T07:34:22;14.57;;;2.75;;
56043;SDS011;41912;51.022;3.664;2023-04-23T07:36:48;9.98;;;2.63;;
56043;SDS011;41912;51.022;3.664;2023-04-23T07:39:13;14.63;;;2.92;;
56043;SDS011;41912;51.022;3.664;2023-04-23T07:41:39;16.33;;;2.70;;
56043;SDS011;41912;51.022;3.664;2023-04-23T07:44:05;10.63;;;2.78;;
56043;SDS011;41912;51.022;3.664;2023-04-23T07:46:31;7.47;;;4.25;;
56043;SDS011;41912;51.022;3.664;2023-04-23T07:48:56;10.98;;;2.67;;
56043;SDS011;41912;51.022;3.664;2023-04-23T07:51:22;7.68;;;2.65;;
56043;SDS011;41912;51.022;3.664;2023-04-23T07:53:51;10.07;;;2.40;;
56043;SDS011;41912;51.022;3.664;2023-04-23T07:56:18;10.70;;;2.70;;
56043;SDS011;41912;51.022;3.664;2023-04-23T07:58:45;6.70;;;2.40;;
56043;SDS011;41912;51.022;3.664;2023-04-23T08:01:11;11.75;;;2.80;;
56043;SDS011;41912;51.022;3.664;2023-04-23T08:03:37;10.68;;;2.83;;
56043;SDS011;41912;51.022;3.664;2023-04-23T08:06:02;11.38;;;2.75;;
56043;SDS011;41912;51.022;3.664;2023-04-23T08:08:28;10.68;;;2.70;;
56043;SDS011;41912;51.022;3.664;2023-04-23T08:10:54;13.60;;;2.40;;
56043;SDS011;41912;51.022;3.664;2023-04-23T08:13:20;13.75;;;2.60;;
56043;SDS011;41912;51.022;3.664;2023-04-23T08:15:46;15.57;;;2.60;;
56043;SDS011;41912;51.022;3.664;2023-04-23T08:18:13;18.00;;;3.72;;
56043;SDS011;41912;51.022;3.664;2023-04-23T08:20:39;14.32;;;2.67;;
56043;SDS011;41912;51.022;3.664;2023-04-23T08:23:05;14.98;;;3.10;;
56043;SDS011;41912;51.022;3.664;2023-04-23T08:25:31;10.18;;;2.80;;
56043;SDS011;41912;51.022;3.664;2023-04-23T08:27:56;14.73;;;3.22;;
56043;SDS011;41912;51.022;3.664;2023-04-23T08:30:22;14.20;;;3.20;;
56043;SDS011;41912;51.022;3.664;2023-04-23T08:32:49;8.65;;;2.33;;
56043;SDS011;41912;51.022;3.664;2023-04-23T08:35:17;4.93;;;2.20;;
56043;SDS011;41912;51.022;3.664;2023-04-23T08:37:43;10.30;;;3.22;;
56043;SDS011;41912;51.022;3.664;2023-04-23T08:40:09;10.00;;;2.40;;
56043;SDS011;41912;51.022;3.664;2023-04-23T08:45:09;13.68;;;3.80;;
56043;SDS011;41912;51.022;3.664;2023-04-23T08:47:35;9.98;;;2.70;;
56043;SDS011;41912;51.022;3.664;2023-04-23T08:50:06;14.17;;;2.50;;
56043;SDS011;41912;51.022;3.664;2023-04-23T08:52:38;13.55;;;3.28;;
56043;SDS011;41912;51.022;3.664;2023-04-23T08:55:06;9.80;;;2.13;;
56043;SDS011;41912;51.022;3.664;2023-04-23T08:57:34;12.73;;;2.55;;
56043;SDS011;41912;51.022;3.664;2023-04-23T09:00:02;11.63;;;3.10;;
56043;SDS011;41912;51.022;3.664;2023-04-23T09:02:33;8.40;;;2.50;;
56043;SDS011;41912;51.022;3.664;2023-04-23T09:05:01;11.50;;;3.00;;
56043;SDS011;41912;51.022;3.664;2023-04-23T09:07:28;10.63;;;2.10;;
56043;SDS011;41912;51.022;3.664;2023-04-23T09:09:53;10.68;;;2.90;;
56043;SDS011;41912;51.022;3.664;2023-04-23T09:12:20;19.27;;;2.45;;
56043;SDS011;41912;51.022;3.664;2023-04-23T09:14:48;7.35;;;2.05;;
56043;SDS011;41912;51.022;3.664;2023-04-23T09:17:14;13.25;;;2.45;;
56043;SDS011;41912;51.022;3.664;2023-04-23T09:19:42;14.55;;;3.92;;
56043;SDS011;41912;51.022;3.664;2023-04-23T09:22:09;11.30;;;2.20;;
56043;SDS011;41912;51.022;3.664;2023-04-23T09:24:34;8.63;;;2.42;;
56043;SDS011;41912;51.022;3.664;2023-04-23T09:27:00;8.13;;;2.35;;
56043;SDS011;41912;51.022;3.664;2023-04-23T09:29:26;11.02;;;1.90;;
56043;SDS011;41912;51.022;3.664;2023-04-23T09:32:03;8.35;;;2.20;;
56043;SDS011;41912;51.022;3.664;2023-04-23T09:34:37;9.13;;;2.20;;
56043;SDS011;41912;51.022;3.664;2023-04-23T09:37:03;8.45;;;2.25;;
56043;SDS011;41912;51.022;3.664;2023-04-23T09:39:31;10.57;;;2.00;;
56043;SDS011;41912;51.022;3.664;2023-04-23T09:42:02;13.55;;;1.80;;
56043;SDS011;41912;51.022;3.664;2023-04-23T09:44:31;11.77;;;1.58;;
56043;SDS011;41912;51.022;3.664;2023-04-23T09:47:04;9.40;;;2.00;;
56043;SDS011;41912;51.022;3.664;2023-04-23T09:49:43;11.15;;;2.63;;
56043;SDS011;41912;51.022;3.664;2023-04-23T09:52:10;10.70;;;3.03;;
56043;SDS011;41912;51.022;3.664;2023-04-23T09:54:36;12.52;;;2.35;;
56043;SDS011;41912;51.022;3.664;2023-04-23T09:57:01;9.95;;;2.80;;
56043;SDS011;41912;51.022;3.664;2023-04-23T09:59:32;10.55;;;2.00;;
56043;SDS011;41912;51.022;3.664;2023-04-23T10:02:00;14.65;;;2.20;;
56043;SDS011;41912;51.022;3.664;2023-04-23T10:04:31;8.30;;;2.22;;
56043;SDS011;41912;51.022;3.664;2023-04-23T10:06:59;9.30;;;2.35;;
56043;SDS011;41912;51.022;3.664;2023-04-23T10:09:27;10.50;;;2.50;;
56043;SDS011;41912;51.022;3.664;2023-04-23T10:11:54;13.70;;;2.60;;
56043;SDS011;41912;51.022;3.664;2023-04-23T10:14:26;9.07;;;2.50;;
56043;SDS011;41912;51.022;3.664;2023-04-23T10:16:56;8.40;;;2.22;;
56043;SDS011;41912;51.022;3.664;2023-04-23T10:19:23;9.18;;;2.53;;
56043;SDS011;41912;51.022;3.664;2023-04-23T10:22:00;14.32;;;2.50;;
56043;SDS011;41912;51.022;3.664;2023-04-23T10:24:33;6.43;;;1.63;;
56043;SDS011;41912;51.022;3.664;2023-04-23T10:27:02;4.82;;;1.70;;
56043;SDS011;41912;51.022;3.664;2023-04-23T10:29:30;10.70;;;2.15;;
56043;SDS011;41912;51.022;3.664;2023-04-23T10:31:59;6.68;;;1.85;;
56043;SDS011;41912;51.022;3.664;2023-04-23T10:34:26;7.03;;;2.00;;
56043;SDS011;41912;51.022;3.664;2023-04-23T10:36:54;10.25;;;2.08;;
56043;SDS011;41912;51.022;3.664;2023-04-23T10:39:23;10.20;;;1.60;;
56043;SDS011;41912;51.022;3.664;2023-04-23T10:41:52;12.00;;;1.80;;
56043;SDS011;41912;51.022;3.664;2023-04-23T10:44:19;10.30;;;1.70;;
56043;SDS011;41912;51.022;3.664;2023-04-23T10:46:51;13.10;;;2.45;;
56043;SDS011;41912;51.022;3.664;2023-04-23T10:49:21;12.90;;;2.38;;
56043;SDS011;41912;51.022;3.664;2023-04-23T10:51:47;11.10;;;2.65;;
56043;SDS011;41912;51.022;3.664;2023-04-23T10:54:14;8.48;;;2.13;;
56043;SDS011;41912;51.022;3.664;2023-04-23T10:56:41;9.23;;;1.92;;
56043;SDS011;41912;51.022;3.664;2023-04-23T10:59:07;9.75;;;1.90;;
56043;SDS011;41912;51.022;3.664;2023-04-23T11:01:46;8.80;;;1.95;;
56043;SDS011;41912;51.022;3.664;2023-04-23T11:04:20;8.82;;;2.00;;
56043;SDS011;41912;51.022;3.664;2023-04-23T11:06:51;6.43;;;1.60;;
56043;SDS011;41912;51.022;3.664;2023-04-23T11:09:38;7.18;;;1.58;;
56043;SDS011;41912;51.022;3.664;2023-04-23T11:14:52;4.55;;;1.17;;
56043;SDS011;41912;51.022;3.664;2023-04-23T11:18:06;4.05;;;1.02;;
56043;SDS011;41912;51.022;3.664;2023-04-23T11:20:17;4.78;;;1.27;;
56043;SDS011;41912;51.022;3.664;2023-04-23T11:22:45;7.88;;;1.23;;
56043;SDS011;41912;51.022;3.664;2023-04-23T11:25:24;3.88;;;1.30;;
56043;SDS011;41912;51.022;3.664;2023-04-23T11:27:52;11.55;;;1.73;;
56043;SDS011;41912;51.022;3.664;2023-04-23T11:30:26;5.72;;;1.13;;
56043;SDS011;41912;51.022;3.664;2023-04-23T11:32:54;6.07;;;0.93;;
56043;SDS011;41912;51.022;3.664;2023-04-23T11:35:21;5.55;;;1.23;;
56043;SDS011;41912;51.022;3.664;2023-04-23T11:37:52;4.13;;;0.95;;
56043;SDS011;41912;51.022;3.664;2023-04-23T11:40:18;4.53;;;1.30;;
56043;SDS011;41912;51.022;3.664;2023-04-23T11:42:47;5.38;;;1.10;;
56043;SDS011;41912;51.022;3.664;2023-04-23T11:45:21;4.38;;;1.10;;
56043;SDS011;41912;51.022;3.664;2023-04-23T11:47:49;7.20;;;1.13;;
56043;SDS011;41912;51.022;3.664;2023-04-23T11:50:20;7.30;;;1.00;;
56043;SDS011;41912;51.022;3.664;2023-04-23T11:52:57;8.60;;;1.35;;
56043;SDS011;41912;51.022;3.664;2023-04-23T11:55:43;7.97;;;1.35;;
56043;SDS011;41912;51.022;3.664;2023-04-23T11:58:12;4.85;;;1.42;;
56043;SDS011;41912;51.022;3.664;2023-04-23T12:00:42;7.60;;;1.48;;
56043;SDS011;41912;51.022;3.664;2023-04-23T12:03:08;5.35;;;1.13;;
56043;SDS011;41912;51.022;3.664;2023-04-23T12:05:34;9.88;;;1.50;;
56043;SDS011;41912;51.022;3.664;2023-04-23T12:10:50;6.18;;;1.63;;
56043;SDS011;41912;51.022;3.664;2023-04-23T12:13:29;7.00;;;1.52;;
56043;SDS011;41912;51.022;3.664;2023-04-23T12:15:58;7.50;;;1.58;;
56043;SDS011;41912;51.022;3.664;2023-04-23T12:18:28;8.63;;;1.10;;
56043;SDS011;41912;51.022;3.664;2023-04-23T12:20:56;5.32;;;1.42;;
56043;SDS011;41912;51.022;3.664;2023-04-23T12:23:31;4.78;;;1.30;;
56043;SDS011;41912;51.022;3.664;2023-04-23T12:25:59;8.27;;;1.70;;
56043;SDS011;41912;51.022;3.664;2023-04-23T12:28:27;6.28;;;1.55;;
56043;SDS011;41912;51.022;3.664;2023-04-23T12:30:57;4.65;;;1.40;;
56043;SDS011;41912;51.022;3.664;2023-04-23T12:33:27;8.05;;;1.60;;
56043;SDS011;41912;51.022;3.664;2023-04-23T12:35:54;6.20;;;1.42;;
56043;SDS011;41912;51.022;3.664;2023-04-23T12:40:47;6.35;;;1.55;;
56043;SDS011;41912;51.022;3.664;2023-04-23T12:43:13;5.60;;;1.23;;
56043;SDS011;41912;51.022;3.664;2023-04-23T12:45:38;6.43;;;2.35;;
56043;SDS011;41912;51.022;3.664;2023-04-23T12:48:04;5.72;;;1.45;;
56043;SDS011;41912;51.022;3.664;2023-04-23T12:50:30;4.93;;;1.48;;
56043;SDS011;41912;51.022;3.664;2023-04-23T12:52:56;7.30;;;1.60;;
56043;SDS011;41912;51.022;3.664;2023-04-23T12:55:21;5.25;;;1.70;;
56043;SDS011;41912;51.022;3.664;2023-04-23T12:57:47;3.88;;;1.20;;
56043;SDS011;41912;51.022;3.664;2023-04-23T13:00:13;6.80;;;1.50;;
56043;SDS011;41912;51.022;3.664;2023-04-23T13:02:38;6.55;;;1.33;;
56043;SDS011;41912;51.022;3.664;2023-04-23T13:05:04;3.22;;;1.10;;
56043;SDS011;41912;51.022;3.664;2023-04-23T13:07:30;5.93;;;1.30;;
56043;SDS011;41912;51.022;3.664;2023-04-23T13:09:56;2.80;;;0.90;;
56043;SDS011;41912;51.022;3.664;2023-04-23T13:12:23;1.80;;;1.08;;
56043;SDS011;41912;51.022;3.664;2023-04-23T13:14:49;3.05;;;0.90;;
56043;SDS011;41912;51.022;3.664;2023-04-23T13:17:15;5.53;;;1.15;;
56043;SDS011;41912;51.022;3.664;2023-04-23T13:19:40;4.40;;;0.73;;
56043;SDS011;41912;51.022;3.664;2023-04-23T13:22:06;3.30;;;0.90;;
56043;SDS011;41912;51.022;3.664;2023-04-23T13:24:32;3.13;;;1.08;;
56043;SDS011;41912;51.022;3.664;2023-04-23T13:26:57;1.88;;;1.10;;
56043;SDS011;41912;51.022;3.664;2023-04-23T13:29:23;2.67;;;0.80;;
56043;SDS011;41912;51.022;3.664;2023-04-23T13:31:51;3.58;;;1.02;;
56043;SDS011;41912;51.022;3.664;2023-04-23T13:34:18;1.92;;;0.80;;
56043;SDS011;41912;51.022;3.664;2023-04-23T13:36:43;2.47;;;1.00;;
56043;SDS011;41912;51.022;3.664;2023-04-23T13:39:09;4.00;;;1.25;;
56043;SDS011;41912;51.022;3.664;2023-04-23T13:41:37;4.30;;;1.08;;
56043;SDS011;41912;51.022;3.664;2023-04-23T13:44:04;4.57;;;0.95;;
56043;SDS011;41912;51.022;3.664;2023-04-23T13:46:29;4.10;;;1.08;;
56043;SDS011;41912;51.022;3.664;2023-04-23T13:48:55;3.88;;;1.20;;
56043;SDS011;41912;51.022;3.664;2023-04-23T13:51:21;3.25;;;1.30;;
56043;SDS011;41912;51.022;3.664;2023-04-23T13:53:46;3.22;;;1.33;;
56043;SDS011;41912;51.022;3.664;2023-04-23T13:56:12;5.60;;;1.23;;
56043;SDS011;41912;51.022;3.664;2023-04-23T13:58:38;2.58;;;0.85;;
56043;SDS011;41912;51.022;3.664;2023-04-23T14:01:07;4.85;;;1.50;;
56043;SDS011;41912;51.022;3.664;2023-04-23T14:03:32;2.53;;;1.30;;
56043;SDS011;41912;51.022;3.664;2023-04-23T14:05:58;1.83;;;1.20;;
56043;SDS011;41912;51.022;3.664;2023-04-23T14:08:24;6.07;;;1.58;;
56043;SDS011;41912;51.022;3.664;2023-04-23T14:10:50;2.72;;;1.38;;
56043;SDS011;41912;51.022;3.664;2023-04-23T14:13:16;4.00;;;1.20;;
56043;SDS011;41912;51.022;3.664;2023-04-23T14:15:41;1.70;;;1.00;;
56043;SDS011;41912;51.022;3.664;2023-04-23T14:18:07;2.88;;;1.60;;
56043;SDS011;41912;51.022;3.664;2023-04-23T14:20:33;5.00;;;1.58;;
56043;SDS011;41912;51.022;3.664;2023-04-23T14:23:02;3.67;;;2.35;;
56043;SDS011;41912;51.022;3.664;2023-04-23T14:25:51;4.57;;;1.30;;
56043;SDS011;41912;51.022;3.664;2023-04-23T14:28:38;4.82;;;1.27;;
56043;SDS011;41912;51.022;3.664;2023-04-23T14:31:08;3.92;;;1.13;;
56043;SDS011;41912;51.022;3.664;2023-04-23T14:33:34;2.03;;;1.02;;
56043;SDS011;41912;51.022;3.664;2023-04-23T14:35:59;3.20;;;1.27;;
56043;SDS011;41912;51.022;3.664;2023-04-23T14:38:25;2.15;;;1.10;;
56043;SDS011;41912;51.022;3.664;2023-04-23T14:40:51;4.00;;;1.23;;
56043;SDS011;41912;51.022;3.664;2023-04-23T14:43:17;3.50;;;1.88;;
56043;SDS011;41912;51.022;3.664;2023-04-23T14:45:43;4.65;;;2.40;;